sensor_id;sensor_type;location;lat;lon;timestamp;P1;durP1;ratioP1;P2;durP2;ratioP2
76631;SDS011;65526;48.578;-4.520;2023-05-10T00:02:26;25.13;;;3.63;;
76631;SDS011;65526;48.578;-4.520;2023-05-10T00:04:52;22.65;;;3.33;;
76631;SDS011;65526;48.578;-4.520;2023-05-10T00:07:19;19.65;;;3.50;;
76631;SDS011;65526;48.578;-4.520;2023-05-10T00:09:45;28.90;;;4.47;;
76631;SDS011;65526;48.578;-4.520;2023-05-10T00:12:11;22.58;;;2.65;;
76631;SDS011;65526;48.578;-4.520;2023-05-10T00:14:38;24.33;;;3.33;;
76631;SDS011;65526;48.578;-4.520;2023-05-10T00:17:04;24.60;;;3.80;;
76631;SDS011;65526;48.578;-4.520;2023-05-10T00:19:31;23.05;;;3.35;;
76631;SDS011;65526;48.578;-4.520;2023-05-10T00:21:57;32.42;;;3.38;;
76631;SDS011;65526;48.578;-4.520;2023-05-10T00:24:23;25.08;;;3.35;;
76631;SDS011;65526;48.578;-4.520;2023-05-10T00:26:50;29.88;;;3.20;;
76631;SDS011;65526;48.578;-4.520;2023-05-10T00:29:16;18.92;;;3.22;;
76631;SDS011;65526;48.578;-4.520;2023-05-10T00:31:42;27.23;;;3.10;;
76631;SDS011;65526;48.578;-4.520;2023-05-10T00:34:09;30.60;;;3.20;;
76631;SDS011;65526;48.578;-4.520;2023-05-10T00:36:36;30.83;;;3.83;;
76631;SDS011;65526;48.578;-4.520;2023-05-10T00:39:02;25.15;;;4.05;;
76631;SDS011;65526;48.578;-4.520;2023-05-10T00:41:29;24.30;;;3.55;;
76631;SDS011;65526;48.578;-4.520;2023-05-10T00:43:59;30.65;;;3.83;;
76631;SDS011;65526;48.578;-4.520;2023-05-10T00:46:28;25.63;;;2.58;;
76631;SDS011;65526;48.578;-4.520;2023-05-10T00:48:55;28.70;;;3.33;;
76631;SDS011;65526;48.578;-4.520;2023-05-10T00:51:21;23.90;;;3.03;;
76631;SDS011;65526;48.578;-4.520;2023-05-10T00:53:48;26.10;;;2.80;;
76631;SDS011;65526;48.578;-4.520;2023-05-10T00:56:15;26.98;;;3.25;;
76631;SDS011;65526;48.578;-4.520;2023-05-10T00:58:42;22.45;;;3.00;;
76631;SDS011;65526;48.578;-4.520;2023-05-10T01:01:09;24.17;;;3.70;;
76631;SDS011;65526;48.578;-4.520;2023-05-10T01:03:36;19.13;;;2.78;;
76631;SDS011;65526;48.578;-4.520;2023-05-10T01:06:03;25.00;;;3.17;;
76631;SDS011;65526;48.578;-4.520;2023-05-10T01:08:30;25.38;;;3.00;;
76631;SDS011;65526;48.578;-4.520;2023-05-10T01:10:56;19.05;;;3.25;;
76631;SDS011;65526;48.578;-4.520;2023-05-10T01:13:29;32.53;;;4.13;;
76631;SDS011;65526;48.578;-4.520;2023-05-10T01:15:59;28.40;;;3.45;;
76631;SDS011;65526;48.578;-4.520;2023-05-10T01:18:28;32.58;;;4.78;;
76631;SDS011;65526;48.578;-4.520;2023-05-10T01:21:43;24.35;;;2.67;;
76631;SDS011;65526;48.578;-4.520;2023-05-10T01:26:36;25.55;;;2.85;;
76631;SDS011;65526;48.578;-4.520;2023-05-10T01:34:27;25.20;;;3.00;;
76631;SDS011;65526;48.578;-4.520;2023-05-10T01:37:07;19.25;;;3.38;;
76631;SDS011;65526;48.578;-4.520;2023-05-10T01:39:44;22.25;;;2.35;;
76631;SDS011;65526;48.578;-4.520;2023-05-10T01:42:16;28.92;;;3.78;;
76631;SDS011;65526;48.578;-4.520;2023-05-10T01:45:00;27.13;;;3.72;;
76631;SDS011;65526;48.578;-4.520;2023-05-10T01:47:38;29.50;;;3.78;;
76631;SDS011;65526;48.578;-4.520;2023-05-10T01:50:22;20.67;;;4.15;;
76631;SDS011;65526;48.578;-4.520;2023-05-10T01:52:55;26.98;;;4.22;;
76631;SDS011;65526;48.578;-4.520;2023-05-10T01:55:25;24.02;;;3.35;;
76631;SDS011;65526;48.578;-4.520;2023-05-10T01:58:00;26.65;;;4.45;;
76631;SDS011;65526;48.578;-4.520;2023-05-10T02:00:30;30.58;;;3.40;;
76631;SDS011;65526;48.578;-4.520;2023-05-10T02:02:59;22.73;;;3.60;;
76631;SDS011;65526;48.578;-4.520;2023-05-10T02:05:27;16.65;;;2.38;;
76631;SDS011;65526;48.578;-4.520;2023-05-10T02:07:56;17.92;;;3.05;;
76631;SDS011;65526;48.578;-4.520;2023-05-10T02:10:24;23.73;;;2.50;;
76631;SDS011;65526;48.578;-4.520;2023-05-10T02:12:52;19.42;;;2.33;;
76631;SDS011;65526;48.578;-4.520;2023-05-10T02:15:22;21.85;;;3.13;;
76631;SDS011;65526;48.578;-4.520;2023-05-10T02:20:18;20.50;;;2.72;;
76631;SDS011;65526;48.578;-4.520;2023-05-10T02:22:45;22.65;;;3.13;;
76631;SDS011;65526;48.578;-4.520;2023-05-10T02:25:14;26.80;;;2.80;;
76631;SDS011;65526;48.578;-4.520;2023-05-10T02:27:43;30.05;;;4.05;;
76631;SDS011;65526;48.578;-4.520;2023-05-10T02:30:10;18.75;;;2.30;;
76631;SDS011;65526;48.578;-4.520;2023-05-10T02:32:38;19.80;;;2.22;;
76631;SDS011;65526;48.578;-4.520;2023-05-10T02:35:07;21.63;;;2.38;;
76631;SDS011;65526;48.578;-4.520;2023-05-10T02:37:36;25.48;;;3.42;;
76631;SDS011;65526;48.578;-4.520;2023-05-10T02:40:03;12.93;;;2.17;;
76631;SDS011;65526;48.578;-4.520;2023-05-10T02:42:32;25.40;;;3.08;;
76631;SDS011;65526;48.578;-4.520;2023-05-10T02:45:05;27.98;;;2.78;;
76631;SDS011;65526;48.578;-4.520;2023-05-10T02:47:36;21.45;;;3.22;;
76631;SDS011;65526;48.578;-4.520;2023-05-10T02:50:03;31.08;;;3.83;;
76631;SDS011;65526;48.578;-4.520;2023-05-10T02:52:36;21.33;;;2.58;;
76631;SDS011;65526;48.578;-4.520;2023-05-10T02:55:07;29.42;;;3.80;;
76631;SDS011;65526;48.578;-4.520;2023-05-10T02:57:38;22.77;;;3.28;;
76631;SDS011;65526;48.578;-4.520;2023-05-10T03:00:09;26.45;;;2.95;;
76631;SDS011;65526;48.578;-4.520;2023-05-10T03:02:35;29.55;;;3.35;;
76631;SDS011;65526;48.578;-4.520;2023-05-10T03:05:02;21.55;;;4.15;;
76631;SDS011;65526;48.578;-4.520;2023-05-10T03:07:29;20.75;;;2.97;;
76631;SDS011;65526;48.578;-4.520;2023-05-10T03:09:56;32.15;;;3.88;;
76631;SDS011;65526;48.578;-4.520;2023-05-10T03:12:27;26.85;;;3.38;;
76631;SDS011;65526;48.578;-4.520;2023-05-10T03:15:22;30.92;;;2.85;;
76631;SDS011;65526;48.578;-4.520;2023-05-10T03:18:07;30.55;;;3.10;;
76631;SDS011;65526;48.578;-4.520;2023-05-10T03:21:11;26.45;;;2.90;;
76631;SDS011;65526;48.578;-4.520;2023-05-10T03:23:46;30.75;;;3.30;;
76631;SDS011;65526;48.578;-4.520;2023-05-10T03:26:23;29.20;;;3.28;;
76631;SDS011;65526;48.578;-4.520;2023-05-10T03:28:57;20.77;;;3.65;;
76631;SDS011;65526;48.578;-4.520;2023-05-10T03:31:25;26.42;;;2.90;;
76631;SDS011;65526;48.578;-4.520;2023-05-10T03:33:52;33.22;;;3.85;;
76631;SDS011;65526;48.578;-4.520;2023-05-10T03:36:25;29.77;;;4.22;;
76631;SDS011;65526;48.578;-4.520;2023-05-10T03:38:52;28.35;;;3.75;;
76631;SDS011;65526;48.578;-4.520;2023-05-10T03:41:19;33.65;;;3.70;;
76631;SDS011;65526;48.578;-4.520;2023-05-10T03:43:47;27.40;;;3.15;;
76631;SDS011;65526;48.578;-4.520;2023-05-10T03:46:13;24.25;;;3.80;;
76631;SDS011;65526;48.578;-4.520;2023-05-10T03:48:42;17.75;;;3.25;;
76631;SDS011;65526;48.578;-4.520;2023-05-10T03:51:09;23.23;;;3.17;;
76631;SDS011;65526;48.578;-4.520;2023-05-10T03:53:35;33.92;;;4.05;;
76631;SDS011;65526;48.578;-4.520;2023-05-10T03:56:02;20.85;;;3.50;;
76631;SDS011;65526;48.578;-4.520;2023-05-10T03:58:28;23.65;;;3.20;;
76631;SDS011;65526;48.578;-4.520;2023-05-10T04:00:54;22.02;;;2.70;;
76631;SDS011;65526;48.578;-4.520;2023-05-10T04:03:21;24.65;;;3.42;;
76631;SDS011;65526;48.578;-4.520;2023-05-10T04:05:48;37.42;;;4.07;;
76631;SDS011;65526;48.578;-4.520;2023-05-10T04:08:15;27.63;;;3.95;;
76631;SDS011;65526;48.578;-4.520;2023-05-10T04:10:42;26.08;;;3.13;;
76631;SDS011;65526;48.578;-4.520;2023-05-10T04:13:08;26.02;;;3.97;;
76631;SDS011;65526;48.578;-4.520;2023-05-10T04:15:35;31.50;;;3.40;;
76631;SDS011;65526;48.578;-4.520;2023-05-10T04:18:01;28.15;;;3.00;;
76631;SDS011;65526;48.578;-4.520;2023-05-10T04:20:28;21.88;;;3.22;;
76631;SDS011;65526;48.578;-4.520;2023-05-10T04:22:54;23.77;;;2.85;;
76631;SDS011;65526;48.578;-4.520;2023-05-10T04:25:21;19.42;;;3.53;;
76631;SDS011;65526;48.578;-4.520;2023-05-10T04:27:47;22.98;;;3.47;;
76631;SDS011;65526;48.578;-4.520;2023-05-10T04:30:13;18.70;;;3.53;;
76631;SDS011;65526;48.578;-4.520;2023-05-10T04:32:40;16.20;;;2.80;;
76631;SDS011;65526;48.578;-4.520;2023-05-10T04:35:06;25.98;;;4.32;;
76631;SDS011;65526;48.578;-4.520;2023-05-10T04:37:34;21.60;;;2.75;;
76631;SDS011;65526;48.578;-4.520;2023-05-10T04:40:01;22.70;;;3.03;;
76631;SDS011;65526;48.578;-4.520;2023-05-10T04:42:28;32.75;;;3.92;;
76631;SDS011;65526;48.578;-4.520;2023-05-10T04:44:55;18.83;;;3.50;;
76631;SDS011;65526;48.578;-4.520;2023-05-10T04:47:21;23.38;;;2.85;;
76631;SDS011;65526;48.578;-4.520;2023-05-10T04:49:48;24.73;;;2.67;;
76631;SDS011;65526;48.578;-4.520;2023-05-10T04:52:14;24.58;;;4.63;;
76631;SDS011;65526;48.578;-4.520;2023-05-10T04:54:43;13.27;;;1.88;;
76631;SDS011;65526;48.578;-4.520;2023-05-10T04:57:09;22.33;;;4.18;;
76631;SDS011;65526;48.578;-4.520;2023-05-10T04:59:36;20.40;;;2.97;;
76631;SDS011;65526;48.578;-4.520;2023-05-10T05:02:03;14.10;;;2.15;;
76631;SDS011;65526;48.578;-4.520;2023-05-10T05:04:30;16.75;;;2.45;;
76631;SDS011;65526;48.578;-4.520;2023-05-10T05:06:57;19.65;;;3.08;;
76631;SDS011;65526;48.578;-4.520;2023-05-10T05:09:23;14.32;;;1.83;;
76631;SDS011;65526;48.578;-4.520;2023-05-10T05:11:50;18.50;;;1.83;;
76631;SDS011;65526;48.578;-4.520;2023-05-10T05:14:16;17.25;;;1.92;;
76631;SDS011;65526;48.578;-4.520;2023-05-10T05:16:43;19.17;;;3.28;;
76631;SDS011;65526;48.578;-4.520;2023-05-10T05:19:09;24.15;;;3.30;;
76631;SDS011;65526;48.578;-4.520;2023-05-10T05:21:35;22.98;;;2.53;;
76631;SDS011;65526;48.578;-4.520;2023-05-10T05:24:02;18.40;;;2.50;;
76631;SDS011;65526;48.578;-4.520;2023-05-10T05:26:28;18.85;;;3.03;;
76631;SDS011;65526;48.578;-4.520;2023-05-10T05:28:55;19.05;;;2.38;;
76631;SDS011;65526;48.578;-4.520;2023-05-10T05:31:21;20.95;;;2.70;;
76631;SDS011;65526;48.578;-4.520;2023-05-10T05:33:47;22.90;;;3.28;;
76631;SDS011;65526;48.578;-4.520;2023-05-10T05:36:14;21.08;;;2.28;;
76631;SDS011;65526;48.578;-4.520;2023-05-10T05:38:40;15.63;;;2.40;;
76631;SDS011;65526;48.578;-4.520;2023-05-10T05:41:07;12.27;;;2.60;;
76631;SDS011;65526;48.578;-4.520;2023-05-10T05:43:33;21.42;;;2.63;;
76631;SDS011;65526;48.578;-4.520;2023-05-10T05:46:00;16.95;;;2.10;;
76631;SDS011;65526;48.578;-4.520;2023-05-10T05:48:26;22.73;;;2.40;;
76631;SDS011;65526;48.578;-4.520;2023-05-10T05:50:56;20.92;;;3.45;;
76631;SDS011;65526;48.578;-4.520;2023-05-10T05:53:23;14.50;;;1.95;;
76631;SDS011;65526;48.578;-4.520;2023-05-10T05:55:53;15.32;;;2.42;;
76631;SDS011;65526;48.578;-4.520;2023-05-10T05:58:21;20.55;;;2.22;;
76631;SDS011;65526;48.578;-4.520;2023-05-10T06:00:48;19.73;;;2.05;;
76631;SDS011;65526;48.578;-4.520;2023-05-10T06:03:14;14.43;;;1.55;;
76631;SDS011;65526;48.578;-4.520;2023-05-10T06:05:41;13.48;;;2.33;;
76631;SDS011;65526;48.578;-4.520;2023-05-10T06:08:07;17.83;;;2.13;;
76631;SDS011;65526;48.578;-4.520;2023-05-10T06:10:34;12.82;;;1.98;;
76631;SDS011;65526;48.578;-4.520;2023-05-10T06:13:00;16.38;;;3.45;;
76631;SDS011;65526;48.578;-4.520;2023-05-10T06:15:27;23.70;;;2.75;;
76631;SDS011;65526;48.578;-4.520;2023-05-10T06:17:53;16.70;;;1.88;;
76631;SDS011;65526;48.578;-4.520;2023-05-10T06:20:20;16.75;;;1.80;;
76631;SDS011;65526;48.578;-4.520;2023-05-10T06:22:46;20.92;;;2.17;;
76631;SDS011;65526;48.578;-4.520;2023-05-10T06:25:12;16.63;;;2.42;;
76631;SDS011;65526;48.578;-4.520;2023-05-10T06:27:40;14.55;;;2.63;;
76631;SDS011;65526;48.578;-4.520;2023-05-10T06:30:06;20.73;;;2.25;;
76631;SDS011;65526;48.578;-4.520;2023-05-10T06:32:34;20.55;;;2.60;;
76631;SDS011;65526;48.578;-4.520;2023-05-10T06:35:01;27.50;;;3.08;;
76631;SDS011;65526;48.578;-4.520;2023-05-10T06:37:27;20.15;;;2.60;;
76631;SDS011;65526;48.578;-4.520;2023-05-10T06:39:53;20.92;;;2.28;;
76631;SDS011;65526;48.578;-4.520;2023-05-10T06:42:20;16.60;;;1.85;;
76631;SDS011;65526;48.578;-4.520;2023-05-10T06:44:46;35.83;;;3.50;;
76631;SDS011;65526;48.578;-4.520;2023-05-10T06:47:12;30.38;;;4.25;;
76631;SDS011;65526;48.578;-4.520;2023-05-10T06:49:39;22.33;;;2.90;;
76631;SDS011;65526;48.578;-4.520;2023-05-10T06:52:05;18.05;;;2.00;;
76631;SDS011;65526;48.578;-4.520;2023-05-10T06:54:32;16.92;;;3.40;;
76631;SDS011;65526;48.578;-4.520;2023-05-10T06:56:58;22.02;;;2.15;;
76631;SDS011;65526;48.578;-4.520;2023-05-10T06:59:25;18.20;;;1.95;;
76631;SDS011;65526;48.578;-4.520;2023-05-10T07:01:51;18.73;;;2.22;;
76631;SDS011;65526;48.578;-4.520;2023-05-10T07:04:17;11.02;;;1.63;;
76631;SDS011;65526;48.578;-4.520;2023-05-10T07:06:44;11.07;;;1.55;;
76631;SDS011;65526;48.578;-4.520;2023-05-10T07:09:12;13.32;;;2.10;;
76631;SDS011;65526;48.578;-4.520;2023-05-10T07:11:39;11.73;;;1.85;;
76631;SDS011;65526;48.578;-4.520;2023-05-10T07:14:05;12.65;;;2.47;;
76631;SDS011;65526;48.578;-4.520;2023-05-10T07:16:35;15.32;;;2.30;;
76631;SDS011;65526;48.578;-4.520;2023-05-10T07:19:02;8.25;;;0.90;;
76631;SDS011;65526;48.578;-4.520;2023-05-10T07:21:28;14.05;;;1.48;;
76631;SDS011;65526;48.578;-4.520;2023-05-10T07:23:54;15.48;;;1.92;;
76631;SDS011;65526;48.578;-4.520;2023-05-10T07:26:21;9.13;;;1.42;;
76631;SDS011;65526;48.578;-4.520;2023-05-10T07:28:47;9.65;;;1.95;;
76631;SDS011;65526;48.578;-4.520;2023-05-10T07:31:14;17.95;;;1.90;;
76631;SDS011;65526;48.578;-4.520;2023-05-10T07:33:40;7.50;;;1.25;;
76631;SDS011;65526;48.578;-4.520;2023-05-10T07:36:06;13.13;;;1.80;;
76631;SDS011;65526;48.578;-4.520;2023-05-10T07:38:33;13.80;;;1.65;;
76631;SDS011;65526;48.578;-4.520;2023-05-10T07:40:59;17.38;;;2.10;;
76631;SDS011;65526;48.578;-4.520;2023-05-10T07:43:26;20.35;;;2.05;;
76631;SDS011;65526;48.578;-4.520;2023-05-10T07:45:52;10.73;;;1.33;;
76631;SDS011;65526;48.578;-4.520;2023-05-10T07:48:18;7.63;;;1.63;;
76631;SDS011;65526;48.578;-4.520;2023-05-10T07:50:45;11.73;;;1.50;;
76631;SDS011;65526;48.578;-4.520;2023-05-10T07:53:11;14.30;;;2.17;;
76631;SDS011;65526;48.578;-4.520;2023-05-10T07:55:38;13.88;;;1.40;;
76631;SDS011;65526;48.578;-4.520;2023-05-10T07:58:04;8.88;;;1.45;;
76631;SDS011;65526;48.578;-4.520;2023-05-10T08:00:30;6.85;;;0.95;;
76631;SDS011;65526;48.578;-4.520;2023-05-10T08:02:57;7.03;;;1.10;;
76631;SDS011;65526;48.578;-4.520;2023-05-10T08:05:23;11.90;;;1.60;;
76631;SDS011;65526;48.578;-4.520;2023-05-10T08:07:50;7.00;;;1.02;;
76631;SDS011;65526;48.578;-4.520;2023-05-10T08:10:16;6.80;;;1.00;;
76631;SDS011;65526;48.578;-4.520;2023-05-10T08:12:42;9.52;;;0.95;;
76631;SDS011;65526;48.578;-4.520;2023-05-10T08:15:09;10.35;;;1.55;;
76631;SDS011;65526;48.578;-4.520;2023-05-10T08:17:36;11.57;;;1.42;;
76631;SDS011;65526;48.578;-4.520;2023-05-10T08:20:02;12.25;;;1.33;;
76631;SDS011;65526;48.578;-4.520;2023-05-10T08:22:29;11.07;;;1.45;;
76631;SDS011;65526;48.578;-4.520;2023-05-10T08:24:55;10.35;;;1.02;;
76631;SDS011;65526;48.578;-4.520;2023-05-10T08:27:22;9.25;;;2.25;;
76631;SDS011;65526;48.578;-4.520;2023-05-10T08:29:49;10.82;;;1.15;;
76631;SDS011;65526;48.578;-4.520;2023-05-10T08:32:15;13.15;;;1.70;;
76631;SDS011;65526;48.578;-4.520;2023-05-10T08:34:41;12.77;;;1.65;;
76631;SDS011;65526;48.578;-4.520;2023-05-10T08:37:08;16.98;;;1.75;;
76631;SDS011;65526;48.578;-4.520;2023-05-10T08:39:36;11.00;;;1.67;;
76631;SDS011;65526;48.578;-4.520;2023-05-10T08:42:04;11.63;;;1.10;;
76631;SDS011;65526;48.578;-4.520;2023-05-10T08:44:34;13.38;;;1.92;;
76631;SDS011;65526;48.578;-4.520;2023-05-10T08:47:04;11.45;;;1.50;;
76631;SDS011;65526;48.578;-4.520;2023-05-10T08:49:32;12.32;;;3.40;;
76631;SDS011;65526;48.578;-4.520;2023-05-10T08:52:01;12.30;;;1.63;;
76631;SDS011;65526;48.578;-4.520;2023-05-10T08:54:31;12.65;;;1.95;;
76631;SDS011;65526;48.578;-4.520;2023-05-10T08:56:58;16.48;;;1.73;;
76631;SDS011;65526;48.578;-4.520;2023-05-10T08:59:27;16.88;;;1.90;;
76631;SDS011;65526;48.578;-4.520;2023-05-10T09:01:53;10.25;;;1.27;;
76631;SDS011;65526;48.578;-4.520;2023-05-10T09:04:23;13.88;;;2.17;;
76631;SDS011;65526;48.578;-4.520;2023-05-10T09:06:50;7.63;;;1.33;;
76631;SDS011;65526;48.578;-4.520;2023-05-10T09:09:17;13.93;;;1.80;;
76631;SDS011;65526;48.578;-4.520;2023-05-10T09:11:44;13.95;;;1.70;;
76631;SDS011;65526;48.578;-4.520;2023-05-10T09:14:11;21.17;;;1.83;;
76631;SDS011;65526;48.578;-4.520;2023-05-10T09:16:39;21.48;;;2.80;;
76631;SDS011;65526;48.578;-4.520;2023-05-10T09:19:06;12.85;;;2.38;;
76631;SDS011;65526;48.578;-4.520;2023-05-10T09:21:35;15.90;;;1.70;;
76631;SDS011;65526;48.578;-4.520;2023-05-10T09:24:04;14.15;;;1.80;;
76631;SDS011;65526;48.578;-4.520;2023-05-10T09:26:31;12.48;;;1.40;;
76631;SDS011;65526;48.578;-4.520;2023-05-10T09:29:00;9.23;;;1.45;;
76631;SDS011;65526;48.578;-4.520;2023-05-10T09:31:43;17.45;;;2.85;;
76631;SDS011;65526;48.578;-4.520;2023-05-10T09:34:16;13.00;;;1.38;;
76631;SDS011;65526;48.578;-4.520;2023-05-10T09:36:53;22.42;;;1.83;;
76631;SDS011;65526;48.578;-4.520;2023-05-10T09:39:21;16.75;;;1.52;;
76631;SDS011;65526;48.578;-4.520;2023-05-10T09:41:59;16.25;;;1.65;;
76631;SDS011;65526;48.578;-4.520;2023-05-10T09:44:29;10.25;;;1.50;;
76631;SDS011;65526;48.578;-4.520;2023-05-10T09:46:57;15.95;;;2.80;;
76631;SDS011;65526;48.578;-4.520;2023-05-10T09:49:23;12.93;;;2.25;;
76631;SDS011;65526;48.578;-4.520;2023-05-10T09:52:03;15.13;;;2.33;;
76631;SDS011;65526;48.578;-4.520;2023-05-10T09:54:30;9.82;;;1.27;;
76631;SDS011;65526;48.578;-4.520;2023-05-10T09:56:57;14.35;;;1.98;;
76631;SDS011;65526;48.578;-4.520;2023-05-10T09:59:27;14.73;;;1.70;;
76631;SDS011;65526;48.578;-4.520;2023-05-10T10:01:58;17.70;;;2.15;;
76631;SDS011;65526;48.578;-4.520;2023-05-10T10:04:25;16.60;;;1.95;;
76631;SDS011;65526;48.578;-4.520;2023-05-10T10:06:59;6.65;;;1.08;;
76631;SDS011;65526;48.578;-4.520;2023-05-10T10:09:29;12.27;;;2.28;;
76631;SDS011;65526;48.578;-4.520;2023-05-10T10:11:56;10.77;;;1.67;;
76631;SDS011;65526;48.578;-4.520;2023-05-10T10:14:23;14.57;;;1.73;;
76631;SDS011;65526;48.578;-4.520;2023-05-10T10:16:50;7.30;;;1.20;;
76631;SDS011;65526;48.578;-4.520;2023-05-10T10:19:20;8.68;;;1.35;;
76631;SDS011;65526;48.578;-4.520;2023-05-10T10:21:48;14.13;;;1.70;;
76631;SDS011;65526;48.578;-4.520;2023-05-10T10:24:16;11.45;;;2.13;;
76631;SDS011;65526;48.578;-4.520;2023-05-10T10:26:42;13.68;;;1.30;;
76631;SDS011;65526;48.578;-4.520;2023-05-10T10:29:17;8.38;;;1.40;;
76631;SDS011;65526;48.578;-4.520;2023-05-10T10:31:57;7.45;;;1.17;;
76631;SDS011;65526;48.578;-4.520;2023-05-10T10:34:44;15.30;;;1.80;;
76631;SDS011;65526;48.578;-4.520;2023-05-10T10:37:11;9.27;;;1.60;;
76631;SDS011;65526;48.578;-4.520;2023-05-10T10:39:39;7.60;;;1.25;;
76631;SDS011;65526;48.578;-4.520;2023-05-10T10:42:05;12.30;;;2.10;;
76631;SDS011;65526;48.578;-4.520;2023-05-10T10:52:27;9.50;;;1.25;;
76631;SDS011;65526;48.578;-4.520;2023-05-10T10:54:59;19.52;;;1.92;;
76631;SDS011;65526;48.578;-4.520;2023-05-10T10:57:27;10.85;;;1.30;;
76631;SDS011;65526;48.578;-4.520;2023-05-10T11:02:46;19.13;;;1.92;;
76631;SDS011;65526;48.578;-4.520;2023-05-10T11:07:59;20.60;;;2.03;;
76631;SDS011;65526;48.578;-4.520;2023-05-10T11:10:26;9.85;;;1.77;;
76631;SDS011;65526;48.578;-4.520;2023-05-10T11:13:03;12.63;;;2.42;;
76631;SDS011;65526;48.578;-4.520;2023-05-10T11:15:32;12.35;;;2.03;;
76631;SDS011;65526;48.578;-4.520;2023-05-10T11:17:59;9.48;;;1.40;;
76631;SDS011;65526;48.578;-4.520;2023-05-10T11:20:42;18.13;;;2.28;;
76631;SDS011;65526;48.578;-4.520;2023-05-10T11:23:12;17.52;;;2.50;;
76631;SDS011;65526;48.578;-4.520;2023-05-10T11:25:42;9.85;;;1.20;;
76631;SDS011;65526;48.578;-4.520;2023-05-10T11:28:10;11.90;;;1.70;;
76631;SDS011;65526;48.578;-4.520;2023-05-10T11:30:45;16.42;;;2.28;;
76631;SDS011;65526;48.578;-4.520;2023-05-10T11:33:16;10.90;;;1.50;;
76631;SDS011;65526;48.578;-4.520;2023-05-10T11:35:46;20.00;;;2.20;;
76631;SDS011;65526;48.578;-4.520;2023-05-10T11:38:13;8.02;;;1.30;;
76631;SDS011;65526;48.578;-4.520;2023-05-10T11:40:40;10.05;;;1.60;;
76631;SDS011;65526;48.578;-4.520;2023-05-10T11:43:06;12.18;;;2.33;;
76631;SDS011;65526;48.578;-4.520;2023-05-10T11:45:35;8.85;;;1.80;;
76631;SDS011;65526;48.578;-4.520;2023-05-10T11:48:02;12.63;;;1.98;;
76631;SDS011;65526;48.578;-4.520;2023-05-10T12:27:04;14.85;;;1.77;;
76631;SDS011;65526;48.578;-4.520;2023-05-10T12:29:33;19.30;;;1.88;;
76631;SDS011;65526;48.578;-4.520;2023-05-10T12:31:59;6.93;;;1.20;;
76631;SDS011;65526;48.578;-4.520;2023-05-10T12:37:00;10.93;;;1.05;;
76631;SDS011;65526;48.578;-4.520;2023-05-10T12:39:41;8.85;;;1.10;;
76631;SDS011;65526;48.578;-4.520;2023-05-10T12:42:09;5.97;;;1.25;;
76631;SDS011;65526;48.578;-4.520;2023-05-10T12:44:43;7.70;;;1.40;;
76631;SDS011;65526;48.578;-4.520;2023-05-10T12:47:09;7.07;;;1.50;;
76631;SDS011;65526;48.578;-4.520;2023-05-10T12:49:36;7.25;;;1.30;;
76631;SDS011;65526;48.578;-4.520;2023-05-10T12:52:05;5.45;;;0.80;;
76631;SDS011;65526;48.578;-4.520;2023-05-10T12:54:31;9.55;;;1.00;;
76631;SDS011;65526;48.578;-4.520;2023-05-10T12:56:57;6.47;;;0.93;;
76631;SDS011;65526;48.578;-4.520;2023-05-10T12:59:24;5.60;;;0.88;;
76631;SDS011;65526;48.578;-4.520;2023-05-10T13:01:50;11.65;;;1.30;;
76631;SDS011;65526;48.578;-4.520;2023-05-10T13:04:18;11.93;;;1.38;;
76631;SDS011;65526;48.578;-4.520;2023-05-10T13:06:44;9.93;;;1.27;;
76631;SDS011;65526;48.578;-4.520;2023-05-10T13:09:10;8.70;;;1.23;;
76631;SDS011;65526;48.578;-4.520;2023-05-10T13:11:37;10.88;;;1.88;;
76631;SDS011;65526;48.578;-4.520;2023-05-10T13:14:04;8.50;;;1.30;;
76631;SDS011;65526;48.578;-4.520;2023-05-10T13:16:31;7.20;;;1.08;;
76631;SDS011;65526;48.578;-4.520;2023-05-10T13:18:57;7.57;;;1.25;;
76631;SDS011;65526;48.578;-4.520;2023-05-10T13:21:24;11.85;;;2.13;;
76631;SDS011;65526;48.578;-4.520;2023-05-10T13:23:52;12.52;;;2.13;;
76631;SDS011;65526;48.578;-4.520;2023-05-10T13:26:18;12.65;;;1.20;;
76631;SDS011;65526;48.578;-4.520;2023-05-10T13:28:45;8.18;;;1.45;;
76631;SDS011;65526;48.578;-4.520;2023-05-10T13:31:12;7.60;;;1.42;;
76631;SDS011;65526;48.578;-4.520;2023-05-10T13:33:38;7.00;;;1.08;;
76631;SDS011;65526;48.578;-4.520;2023-05-10T13:36:05;11.70;;;1.52;;
76631;SDS011;65526;48.578;-4.520;2023-05-10T13:38:32;9.57;;;1.45;;
76631;SDS011;65526;48.578;-4.520;2023-05-10T13:40:58;7.43;;;1.17;;
76631;SDS011;65526;48.578;-4.520;2023-05-10T13:43:24;7.07;;;1.15;;
76631;SDS011;65526;48.578;-4.520;2023-05-10T13:45:53;9.45;;;1.52;;
76631;SDS011;65526;48.578;-4.520;2023-05-10T13:48:19;8.38;;;1.52;;
76631;SDS011;65526;48.578;-4.520;2023-05-10T13:50:46;12.73;;;1.13;;
76631;SDS011;65526;48.578;-4.520;2023-05-10T13:53:12;6.35;;;1.05;;
76631;SDS011;65526;48.578;-4.520;2023-05-10T13:55:40;4.75;;;0.80;;
76631;SDS011;65526;48.578;-4.520;2023-05-10T13:58:07;8.50;;;1.35;;
76631;SDS011;65526;48.578;-4.520;2023-05-10T14:00:33;15.23;;;1.92;;
76631;SDS011;65526;48.578;-4.520;2023-05-10T14:02:59;11.10;;;1.35;;
76631;SDS011;65526;48.578;-4.520;2023-05-10T14:05:26;11.02;;;1.30;;
76631;SDS011;65526;48.578;-4.520;2023-05-10T14:07:53;12.88;;;1.20;;
76631;SDS011;65526;48.578;-4.520;2023-05-10T14:10:19;7.38;;;0.85;;
76631;SDS011;65526;48.578;-4.520;2023-05-10T14:12:46;3.53;;;0.70;;
76631;SDS011;65526;48.578;-4.520;2023-05-10T14:15:12;5.05;;;0.93;;
76631;SDS011;65526;48.578;-4.520;2023-05-10T14:17:38;6.15;;;0.60;;
76631;SDS011;65526;48.578;-4.520;2023-05-10T14:20:05;7.30;;;1.10;;
76631;SDS011;65526;48.578;-4.520;2023-05-10T14:22:32;6.15;;;1.13;;
76631;SDS011;65526;48.578;-4.520;2023-05-10T14:24:58;9.90;;;1.10;;
76631;SDS011;65526;48.578;-4.520;2023-05-10T14:27:25;5.93;;;1.10;;
76631;SDS011;65526;48.578;-4.520;2023-05-10T14:29:51;6.15;;;0.98;;
76631;SDS011;65526;48.578;-4.520;2023-05-10T14:32:18;5.47;;;0.90;;
76631;SDS011;65526;48.578;-4.520;2023-05-10T14:34:45;4.90;;;1.00;;
76631;SDS011;65526;48.578;-4.520;2023-05-10T14:37:13;8.77;;;0.95;;
76631;SDS011;65526;48.578;-4.520;2023-05-10T14:39:39;6.93;;;0.63;;
76631;SDS011;65526;48.578;-4.520;2023-05-10T14:42:06;7.30;;;1.23;;
76631;SDS011;65526;48.578;-4.520;2023-05-10T14:44:32;5.55;;;0.93;;
76631;SDS011;65526;48.578;-4.520;2023-05-10T14:46:58;7.47;;;1.02;;
76631;SDS011;65526;48.578;-4.520;2023-05-10T14:49:25;3.88;;;0.65;;
76631;SDS011;65526;48.578;-4.520;2023-05-10T14:51:52;5.57;;;1.00;;
76631;SDS011;65526;48.578;-4.520;2023-05-10T14:54:19;5.88;;;0.75;;
76631;SDS011;65526;48.578;-4.520;2023-05-10T14:56:45;8.02;;;0.88;;
76631;SDS011;65526;48.578;-4.520;2023-05-10T14:59:11;4.57;;;0.43;;
76631;SDS011;65526;48.578;-4.520;2023-05-10T15:01:38;4.70;;;0.65;;
76631;SDS011;65526;48.578;-4.520;2023-05-10T15:04:07;3.50;;;0.47;;
76631;SDS011;65526;48.578;-4.520;2023-05-10T15:06:34;1.90;;;0.35;;
76631;SDS011;65526;48.578;-4.520;2023-05-10T15:09:01;7.13;;;0.60;;
76631;SDS011;65526;48.578;-4.520;2023-05-10T15:11:29;5.75;;;0.82;;
76631;SDS011;65526;48.578;-4.520;2023-05-10T15:13:55;3.50;;;0.60;;
76631;SDS011;65526;48.578;-4.520;2023-05-10T15:16:21;3.03;;;0.40;;
76631;SDS011;65526;48.578;-4.520;2023-05-10T15:18:48;5.13;;;0.40;;
76631;SDS011;65526;48.578;-4.520;2023-05-10T15:21:14;5.78;;;0.75;;
76631;SDS011;65526;48.578;-4.520;2023-05-10T15:23:41;3.00;;;0.40;;
76631;SDS011;65526;48.578;-4.520;2023-05-10T15:26:07;8.27;;;0.75;;
76631;SDS011;65526;48.578;-4.520;2023-05-10T15:28:33;9.10;;;0.90;;
76631;SDS011;65526;48.578;-4.520;2023-05-10T15:30:59;5.28;;;0.65;;
76631;SDS011;65526;48.578;-4.520;2023-05-10T15:33:26;4.65;;;0.70;;
76631;SDS011;65526;48.578;-4.520;2023-05-10T15:35:53;0.68;;;0.30;;